WIDN/TNJ METAR and TAF weather

Enter ICAO airport designator
Station Type Date Time Source
WIDN METAR 2021/08/01 05:30 UTC NOAA

WIDN 010530Z 26006KT 9999 SCT015 29/23 Q1011 NOSIG= ? METAR WIEE 010530Z 29006KT 9999 FEW020 SCT120 30/22 Q1011 NOSIG


Station Type Date Time Source
WIDN Decoded METAR 2021/08/01 05:30 UTC NOAA

Station name not available
Aug 01, 2021 - 01:30 AM EDT / 2021.08.01 0530 UTC
Wind: from the W (260 degrees) at 7 MPH (6 KT):0
Visibility: greater than 7 mile(s):0
Sky conditions: partly cloudy
Temperature: 84 F (29 C)
Dew Point: 73 F (23 C)
Relative Humidity: 70%
Pressure (altimeter): 29.85 in. Hg (1011 hPa)
ob: WIDN 010530Z 26006KT 9999 SCT015 29/23 Q1011 NOSIG= ? METAR WIEE 010530Z 29006KT 9999 FEW020 SCT120 30/22 Q1011 NOSIG
cycle: 5

Station Type Date Time Source
WIDN TAF 2011/04/08 06:00 UTC NOAA

TAF WIDN 080500Z 0806/0818 04010KT 9000 SCT020
BECMG 35010KT

Example: see airport list